Time;durP1;ratioP1;P1;durP2;ratioP2;P2;SDS_P1;SDS_P2;PMS_P1;PMS_P2;Temp;Humidity;BMP_temperature;BMP_pressure;BME280_temperature;BME280_humidity;BME280_pressure;Samples;Min_cycle;Max_cycle;Signal;HPM_P1;HPM_P2
2023/01/31 00:00:02;;;;;;;;;;;;;;;;;;5008132;28;19926;-57
2023/01/31 00:02:28;;;;;;;;;;;;;;;;;;5008133;28;19926;-56
2023/01/31 00:04:54;;;;;;;;;;;;;;;;;;5008105;28;20039;-57
2023/01/31 00:07:20;;;;;;;;;;;;;;;;;;5007693;28;19934;-57
2023/01/31 00:09:46;;;;;;;;;;;;;;;;;;5007956;28;19925;-57
2023/01/31 00:12:12;;;;;;;;;;;;;;;;;;5016004;28;20432;-57
2023/01/31 00:14:38;;;;;;;;;;;;;;;;;;5027716;28;20012;-57
2023/01/31 00:17:04;;;;;;;;;;;;;;;;;;5027733;28;20015;-57
2023/01/31 00:19:30;;;;;;;;;;;;;;;;;;5027429;28;20608;-57
2023/01/31 00:21:56;;;;;;;;;;;;;;;;;;5027473;28;19925;-57
2023/01/31 00:24:22;;;;;;;;;;;;;;;;;;5026669;28;19921;-57
2023/01/31 00:26:55;;;;;;;;;;;;;;;;;;5027626;28;19955;-57
2023/01/31 00:29:21;;;;;;;;;;;;;;;;;;5028413;28;19931;-57
2023/01/31 00:31:47;;;;;;;;;;;;;;;;;;5032166;28;20369;-57
2023/01/31 00:34:13;;;;;;;;;;;;;;;;;;5031401;28;19925;-55
2023/01/31 00:36:39;;;;;;;;;;;;;;;;;;5031249;28;19953;-57
2023/01/31 00:39:05;;;;;;;;;;;;;;;;;;5030658;28;20518;-57
2023/01/31 00:41:31;;;;;;;;;;;;;;;;;;5031389;28;19928;-57
2023/01/31 00:43:57;;;;;;;;;;;;;;;;;;5031455;28;20028;-57
2023/01/31 00:46:23;;;;;;;;;;;;;;;;;;5031277;28;20371;-56
2023/01/31 00:48:49;;;;;;;;;;;;;;;;;;5031327;28;19975;-57
2023/01/31 00:51:15;;;;;;;;;;;;;;;;;;5031797;28;19964;-56
2023/01/31 00:53:41;;;;;;;;;;;;;;;;;;5030360;28;20374;-57
2023/01/31 00:56:07;;;;;;;;;;;;;;;;;;5031169;28;19936;-57
2023/01/31 00:58:33;;;;;;;;;;;;;;;;;;5030979;28;20295;-57
2023/01/31 01:00:59;;;;;;;;;;;;;;;;;;5031347;28;20426;-57
2023/01/31 01:03:25;;;;;;;;;;;;;;;;;;5030724;28;19933;-57
2023/01/31 01:05:51;;;;;;;;;;;;;;;;;;5031150;28;19925;-56
2023/01/31 01:08:17;;;;;;;;;;;;;;;;;;5030345;28;20403;-54
2023/01/31 01:10:43;;;;;;;;;;;;;;;;;;5031494;28;19925;-56
2023/01/31 01:13:09;;;;;;;;;;;;;;;;;;5030539;28;20286;-57
2023/01/31 01:15:35;;;;;;;;;;;;;;;;;;5030873;28;19925;-57
2023/01/31 01:18:01;;;;;;;;;;;;;;;;;;5030750;28;19925;-56
2023/01/31 01:20:27;;;;;;;;;;;;;;;;;;5029947;28;20387;-57
2023/01/31 01:22:53;;;;;;;;;;;;;;;;;;5030207;28;19925;-53
2023/01/31 01:25:19;;;;;;;;;;;;;;;;;;5030443;28;20418;-56
2023/01/31 01:27:45;;;;;;;;;;;;;;;;;;5030938;28;20016;-57
2023/01/31 01:30:11;;;;;;;;;;;;;;;;;;5030683;28;19925;-56
2023/01/31 01:32:37;;;;;;;;;;;;;;;;;;5028918;28;20451;-57
2023/01/31 01:35:03;;;;;;;;;;;;;;;;;;5030243;28;20268;-57
2023/01/31 01:37:29;;;;;;;;;;;;;;;;;;5030184;28;20739;-56
2023/01/31 01:39:55;;;;;;;;;;;;;;;;;;5029706;28;19925;-57
2023/01/31 01:42:21;;;;;;;;;;;;;;;;;;5029561;28;19925;-57
2023/01/31 01:44:47;;;;;;;;;;;;;;;;;;5030540;28;20367;-52
2023/01/31 01:47:13;;;;;;;;;;;;;;;;;;5030945;28;19925;-57
2023/01/31 01:49:39;;;;;;;;;;;;;;;;;;5028865;28;19929;-54
2023/01/31 01:52:05;;;;;;;;;;;;;;;;;;5030612;28;20318;-57
2023/01/31 01:54:31;;;;;;;;;;;;;;;;;;5029078;28;19925;-57
2023/01/31 01:56:57;;;;;;;;;;;;;;;;;;5012656;28;19925;-57
2023/01/31 01:59:23;;;;;;;;;;;;;;;;;;5029959;28;20383;-57
2023/01/31 02:01:49;;;;;;;;;;;;;;;;;;5030167;28;20145;-57
2023/01/31 02:04:15;;;;;;;;;;;;;;;;;;5027797;28;19925;-56
2023/01/31 02:06:41;;;;;;;;;;;;;;;;;;5029471;28;19932;-57
2023/01/31 02:09:07;;;;;;;;;;;;;;;;;;5029175;28;19928;-57
2023/01/31 02:11:33;;;;;;;;;;;;;;;;;;5029234;28;20375;-57
2023/01/31 02:13:59;;;;;;;;;;;;;;;;;;5029614;28;19979;-57
2023/01/31 02:16:25;;;;;;;;;;;;;;;;;;5029406;28;20035;-57
2023/01/31 02:18:51;;;;;;;;;;;;;;;;;;5029433;28;20430;-55
2023/01/31 02:21:17;;;;;;;;;;;;;;;;;;5029770;28;19967;-56
2023/01/31 02:23:43;;;;;;;;;;;;;;;;;;5029494;28;20355;-57
2023/01/31 02:26:09;;;;;;;;;;;;;;;;;;5029285;28;19995;-55
2023/01/31 02:28:35;;;;;;;;;;;;;;;;;;5029243;28;19925;-56
2023/01/31 02:31:01;;;;;;;;;;;;;;;;;;5011338;28;20287;-56
2023/01/31 02:33:27;;;;;;;;;;;;;;;;;;5029239;28;19921;-57
2023/01/31 02:35:53;;;;;;;;;;;;;;;;;;5029285;28;20013;-57
2023/01/31 02:38:19;;;;;;;;;;;;;;;;;;5028350;28;19925;-57
2023/01/31 02:40:45;;;;;;;;;;;;;;;;;;5029401;28;19925;-57
2023/01/31 02:43:11;;;;;;;;;;;;;;;;;;5029564;28;19925;-53
2023/01/31 02:45:37;;;;;;;;;;;;;;;;;;5028661;28;20569;-57
2023/01/31 02:48:03;;;;;;;;;;;;;;;;;;5016350;28;20302;-55
2023/01/31 02:50:29;;;;;;;;;;;;;;;;;;5029207;28;19928;-57
2023/01/31 02:52:55;;;;;;;;;;;;;;;;;;5026849;28;19952;-56
2023/01/31 02:58:06;;;;;;;;;;;;;;;;;;5010443;28;19948;-56
2023/01/31 03:00:32;;;;;;;;;;;;;;;;;;5010148;28;20079;-56
2023/01/31 03:02:58;;;;;;;;;;;;;;;;;;5011166;28;19925;-57
2023/01/31 03:05:24;;;;;;;;;;;;;;;;;;5028372;28;19921;-55
2023/01/31 03:07:50;;;;;;;;;;;;;;;;;;5027944;28;19925;-57
2023/01/31 03:10:16;;;;;;;;;;;;;;;;;;5028907;28;19932;-55
2023/01/31 03:12:42;;;;;;;;;;;;;;;;;;5028087;28;19925;-57
2023/01/31 03:15:09;;;;;;;;;;;;;;;;;;5028309;28;19932;-56
2023/01/31 03:17:35;;;;;;;;;;;;;;;;;;5028346;28;19925;-55
2023/01/31 03:20:01;;;;;;;;;;;;;;;;;;5010368;28;19931;-57
2023/01/31 03:22:27;;;;;;;;;;;;;;;;;;5027727;28;19925;-57
2023/01/31 03:24:53;;;;;;;;;;;;;;;;;;5028519;28;19929;-56
2023/01/31 03:27:19;;;;;;;;;;;;;;;;;;5028032;28;19929;-55
2023/01/31 03:29:45;;;;;;;;;;;;;;;;;;5009974;28;19932;-57
2023/01/31 03:32:12;;;;;;;;;;;;;;;;;;5028409;28;19925;-56
2023/01/31 03:34:38;;;;;;;;;;;;;;;;;;5027650;28;19929;-57
2023/01/31 03:37:04;;;;;;;;;;;;;;;;;;5028361;28;19967;-57
2023/01/31 03:39:30;;;;;;;;;;;;;;;;;;5009578;28;19929;-57
2023/01/31 03:41:56;;;;;;;;;;;;;;;;;;5027866;28;19925;-57
2023/01/31 03:44:22;;;;;;;;;;;;;;;;;;5027550;28;19932;-56
2023/01/31 03:46:48;;;;;;;;;;;;;;;;;;5028221;28;20645;-57
2023/01/31 03:49:14;;;;;;;;;;;;;;;;;;5028609;28;20016;-57
2023/01/31 03:51:40;;;;;;;;;;;;;;;;;;5027894;28;19928;-57
2023/01/31 03:54:05;;;;;;;;;;;;;;;;;;5009891;28;20369;-57
2023/01/31 03:56:32;;;;;;;;;;;;;;;;;;5027772;28;19925;-56
2023/01/31 03:58:57;;;;;;;;;;;;;;;;;;5027567;28;19925;-57
2023/01/31 04:01:23;;;;;;;;;;;;;;;;;;5027822;28;19931;-57
2023/01/31 04:03:49;;;;;;;;;;;;;;;;;;5027517;28;19958;-56
2023/01/31 04:06:16;;;;;;;;;;;;;;;;;;5010337;28;19926;-57
2023/01/31 04:08:42;;;;;;;;;;;;;;;;;;5027013;28;19925;-56
2023/01/31 04:11:08;;;;;;;;;;;;;;;;;;5027822;28;19932;-56
2023/01/31 04:13:34;;;;;;;;;;;;;;;;;;5026857;28;20554;-57
2023/01/31 04:16:00;;;;;;;;;;;;;;;;;;5027598;28;19935;-56
2023/01/31 04:18:26;;;;;;;;;;;;;;;;;;5027816;28;19931;-57
2023/01/31 04:20:52;;;;;;;;;;;;;;;;;;5027616;28;20379;-56
2023/01/31 04:23:18;;;;;;;;;;;;;;;;;;5026673;28;19925;-57
2023/01/31 04:25:44;;;;;;;;;;;;;;;;;;5027618;28;20294;-57
2023/01/31 04:28:10;;;;;;;;;;;;;;;;;;5027159;28;20413;-57
2023/01/31 04:30:36;;;;;;;;;;;;;;;;;;5027547;28;20016;-57
2023/01/31 04:33:02;;;;;;;;;;;;;;;;;;5027704;28;19987;-56
2023/01/31 04:35:28;;;;;;;;;;;;;;;;;;5026862;28;19959;-56
2023/01/31 04:37:54;;;;;;;;;;;;;;;;;;5026297;28;19925;-57
2023/01/31 04:40:20;;;;;;;;;;;;;;;;;;5026979;28;20383;-56
2023/01/31 04:42:46;;;;;;;;;;;;;;;;;;5027352;28;19990;-56
2023/01/31 04:45:12;;;;;;;;;;;;;;;;;;5027549;28;20410;-57
2023/01/31 04:47:38;;;;;;;;;;;;;;;;;;5027110;28;19943;-56
2023/01/31 04:50:04;;;;;;;;;;;;;;;;;;5027209;28;20371;-57
2023/01/31 04:52:30;;;;;;;;;;;;;;;;;;5026345;28;20310;-57
2023/01/31 04:54:56;;;;;;;;;;;;;;;;;;5027170;28;19929;-57
2023/01/31 04:57:22;;;;;;;;;;;;;;;;;;5027231;28;19925;-55
2023/01/31 04:59:49;;;;;;;;;;;;;;;;;;5027710;28;19922;-57
2023/01/31 05:02:16;;;;;;;;;;;;;;;;;;5027608;28;20671;-56
2023/01/31 05:04:42;;;;;;;;;;;;;;;;;;5027829;28;19929;-57
2023/01/31 05:07:08;;;;;;;;;;;;;;;;;;5025700;28;20012;-56
2023/01/31 05:09:34;;;;;;;;;;;;;;;;;;5027368;28;19925;-57
2023/01/31 05:12:00;;;;;;;;;;;;;;;;;;5027088;28;19980;-57
2023/01/31 05:14:26;;;;;;;;;;;;;;;;;;5027276;28;19925;-57
2023/01/31 05:16:52;;;;;;;;;;;;;;;;;;5028879;28;19926;-57
2023/01/31 05:19:18;;;;;;;;;;;;;;;;;;5030591;28;19936;-58
2023/01/31 05:21:53;;;;;;;;;;;;;;;;;;5031260;28;19925;-57
2023/01/31 05:24:19;;;;;;;;;;;;;;;;;;5029842;28;19935;-56
2023/01/31 05:26:46;;;;;;;;;;;;;;;;;;5018089;28;20008;-57
2023/01/31 05:29:12;;;;;;;;;;;;;;;;;;5011102;28;19925;-56
2023/01/31 05:31:38;;;;;;;;;;;;;;;;;;5010858;28;19929;-57
2023/01/31 05:34:04;;;;;;;;;;;;;;;;;;5010842;28;19925;-57
2023/01/31 05:36:30;;;;;;;;;;;;;;;;;;5009966;28;20371;-58
2023/01/31 05:38:56;;;;;;;;;;;;;;;;;;4989486;28;19926;-58
2023/01/31 05:41:22;;;;;;;;;;;;;;;;;;5011569;28;19926;-55
2023/01/31 05:43:48;;;;;;;;;;;;;;;;;;5001165;28;20397;-58
2023/01/31 05:46:30;;;;;;;;;;;;;;;;;;5010222;28;19921;-57
2023/01/31 05:48:56;;;;;;;;;;;;;;;;;;5010529;28;19926;-58
2023/01/31 05:51:22;;;;;;;;;;;;;;;;;;5010230;28;19926;-57
2023/01/31 05:53:48;;;;;;;;;;;;;;;;;;5009915;28;19932;-58
2023/01/31 05:56:15;;;;;;;;;;;;;;;;;;5003528;28;20408;-58
2023/01/31 05:58:41;;;;;;;;;;;;;;;;;;5006236;28;19932;-57
2023/01/31 06:01:07;;;;;;;;;;;;;;;;;;4993849;28;20048;-58
2023/01/31 06:03:33;;;;;;;;;;;;;;;;;;4993222;28;19974;-58
2023/01/31 06:05:59;;;;;;;;;;;;;;;;;;4996892;28;20348;-57
2023/01/31 06:08:25;;;;;;;;;;;;;;;;;;4991845;28;19933;-58
2023/01/31 06:10:51;;;;;;;;;;;;;;;;;;5004331;28;19925;-57
2023/01/31 06:13:17;;;;;;;;;;;;;;;;;;5023496;28;19925;-58
2023/01/31 06:15:43;;;;;;;;;;;;;;;;;;5014385;28;19940;-57
2023/01/31 06:18:10;;;;;;;;;;;;;;;;;;5018922;28;20108;-58
2023/01/31 06:20:37;;;;;;;;;;;;;;;;;;5012436;28;19932;-57
2023/01/31 06:23:03;;;;;;;;;;;;;;;;;;5021740;28;19931;-57
2023/01/31 06:25:29;;;;;;;;;;;;;;;;;;5011233;28;19926;-58
2023/01/31 06:27:55;;;;;;;;;;;;;;;;;;5004294;28;19975;-57
2023/01/31 06:30:22;;;;;;;;;;;;;;;;;;5022188;28;19971;-58
2023/01/31 06:32:48;;;;;;;;;;;;;;;;;;5013317;28;19926;-57
2023/01/31 06:35:14;;;;;;;;;;;;;;;;;;5018702;28;20295;-58
2023/01/31 06:37:40;;;;;;;;;;;;;;;;;;5008908;28;19929;-58
2023/01/31 06:40:06;;;;;;;;;;;;;;;;;;5014962;28;19933;-58
2023/01/31 06:42:32;;;;;;;;;;;;;;;;;;5014295;28;19964;-56
2023/01/31 06:44:58;;;;;;;;;;;;;;;;;;5013503;28;20019;-58
2023/01/31 06:47:24;;;;;;;;;;;;;;;;;;5011329;28;20260;-57
2023/01/31 06:49:50;;;;;;;;;;;;;;;;;;5014196;28;19929;-57
2023/01/31 06:52:16;;;;;;;;;;;;;;;;;;5013675;28;20307;-54
2023/01/31 06:54:42;;;;;;;;;;;;;;;;;;5014111;28;19932;-57
2023/01/31 06:57:08;;;;;;;;;;;;;;;;;;5009440;28;19972;-57
2023/01/31 06:59:34;;;;;;;;;;;;;;;;;;5008825;28;19925;-57
2023/01/31 07:02:00;;;;;;;;;;;;;;;;;;5005674;28;20341;-57
2023/01/31 07:04:26;;;;;;;;;;;;;;;;;;5012266;28;19933;-57
2023/01/31 07:06:52;;;;;;;;;;;;;;;;;;5013867;28;20024;-57
2023/01/31 07:09:18;;;;;;;;;;;;;;;;;;5013404;28;19926;-57
2023/01/31 07:11:44;;;;;;;;;;;;;;;;;;5021916;28;19971;-55
2023/01/31 07:14:10;;;;;;;;;;;;;;;;;;5024252;28;19929;-58
2023/01/31 07:16:37;;;;;;;;;;;;;;;;;;5026656;28;20349;-58
2023/01/31 07:19:03;;;;;;;;;;;;;;;;;;5026012;28;20409;-55
2023/01/31 07:21:29;;;;;;;;;;;;;;;;;;5026646;28;19972;-57
2023/01/31 07:23:55;;;;;;;;;;;;;;;;;;5026215;28;19925;-57
2023/01/31 07:26:21;;;;;;;;;;;;;;;;;;5027455;28;20014;-57
2023/01/31 07:28:47;;;;;;;;;;;;;;;;;;5026909;28;19956;-57
2023/01/31 07:31:13;;;;;;;;;;;;;;;;;;5027654;28;19970;-57
2023/01/31 07:33:39;;;;;;;;;;;;;;;;;;5026664;28;20012;-56
2023/01/31 07:36:05;;;;;;;;;;;;;;;;;;5026853;28;20059;-57
2023/01/31 07:38:31;;;;;;;;;;;;;;;;;;5022890;28;20418;-57
2023/01/31 07:40:57;;;;;;;;;;;;;;;;;;5026011;28;19932;-54
2023/01/31 07:43:23;;;;;;;;;;;;;;;;;;5025890;28;19921;-57
2023/01/31 07:45:49;;;;;;;;;;;;;;;;;;5027107;28;19925;-57
2023/01/31 07:48:15;;;;;;;;;;;;;;;;;;5026893;28;19983;-58
2023/01/31 07:50:41;;;;;;;;;;;;;;;;;;5025463;28;19995;-57
2023/01/31 07:53:07;;;;;;;;;;;;;;;;;;5025792;28;20023;-58
2023/01/31 07:55:33;;;;;;;;;;;;;;;;;;5027352;28;19936;-57
2023/01/31 07:57:59;;;;;;;;;;;;;;;;;;5026725;28;20276;-57
2023/01/31 08:05:54;;;;;;;;;;;;;;;;;;5026138;28;19932;-58
2023/01/31 08:08:20;;;;;;;;;;;;;;;;;;5025036;28;19929;-56
2023/01/31 08:10:46;;;;;;;;;;;;;;;;;;5026034;28;19925;-58
2023/01/31 08:13:12;;;;;;;;;;;;;;;;;;5026092;28;20271;-58
2023/01/31 08:15:38;;;;;;;;;;;;;;;;;;5026299;28;20302;-57
2023/01/31 08:18:04;;;;;;;;;;;;;;;;;;5026392;28;20394;-58
2023/01/31 08:20:30;;;;;;;;;;;;;;;;;;5025429;28;19925;-50
2023/01/31 08:22:58;;;;;;;;;;;;;;;;;;5025809;28;20329;-57
2023/01/31 08:25:25;;;;;;;;;;;;;;;;;;5026430;28;19976;-57
2023/01/31 08:27:51;;;;;;;;;;;;;;;;;;5026151;28;19932;-57
2023/01/31 08:30:17;;;;;;;;;;;;;;;;;;5025414;28;19925;-55
2023/01/31 08:32:43;;;;;;;;;;;;;;;;;;5026887;28;20290;-57
2023/01/31 08:35:09;;;;;;;;;;;;;;;;;;5026135;28;19929;-57
2023/01/31 08:37:35;;;;;;;;;;;;;;;;;;5025040;28;19925;-58
2023/01/31 08:40:01;;;;;;;;;;;;;;;;;;5025877;28;19929;-54
2023/01/31 08:42:27;;;;;;;;;;;;;;;;;;5026501;28;19930;-58
2023/01/31 08:44:53;;;;;;;;;;;;;;;;;;5026046;28;19965;-56
2023/01/31 08:47:20;;;;;;;;;;;;;;;;;;5024126;28;19925;-57
2023/01/31 08:49:46;;;;;;;;;;;;;;;;;;5026418;28;19925;-57
2023/01/31 08:52:12;;;;;;;;;;;;;;;;;;5029082;28;19934;-57
2023/01/31 08:54:38;;;;;;;;;;;;;;;;;;5029639;28;19929;-58
2023/01/31 08:57:04;;;;;;;;;;;;;;;;;;5029857;28;19971;-52
2023/01/31 08:59:30;;;;;;;;;;;;;;;;;;5029008;28;20406;-58
2023/01/31 09:01:56;;;;;;;;;;;;;;;;;;5029303;28;19933;-58
2023/01/31 09:04:22;;;;;;;;;;;;;;;;;;5028058;28;19925;-57
2023/01/31 09:06:48;;;;;;;;;;;;;;;;;;5029542;28;19932;-58
2023/01/31 09:09:14;;;;;;;;;;;;;;;;;;5029122;28;20386;-57
2023/01/31 09:11:40;;;;;;;;;;;;;;;;;;5025770;28;19926;-58
2023/01/31 09:14:06;;;;;;;;;;;;;;;;;;5010565;28;19936;-57
2023/01/31 09:16:32;;;;;;;;;;;;;;;;;;5010538;28;19948;-57
2023/01/31 09:18:58;;;;;;;;;;;;;;;;;;5009487;28;19972;-58
2023/01/31 09:21:24;;;;;;;;;;;;;;;;;;5009128;28;19933;-58
2023/01/31 09:23:50;;;;;;;;;;;;;;;;;;5009827;28;19933;-58
2023/01/31 09:26:16;;;;;;;;;;;;;;;;;;5010343;28;19933;-58
2023/01/31 09:28:43;;;;;;;;;;;;;;;;;;5010064;28;19926;-56
2023/01/31 09:31:09;;;;;;;;;;;;;;;;;;5009589;28;19925;-57
2023/01/31 09:33:35;;;;;;;;;;;;;;;;;;5009409;28;19979;-58
2023/01/31 09:36:01;;;;;;;;;;;;;;;;;;5009820;28;19925;-57
2023/01/31 09:38:27;;;;;;;;;;;;;;;;;;5008936;28;19925;-58
2023/01/31 09:40:53;;;;;;;;;;;;;;;;;;5010458;28;19969;-57
2023/01/31 09:43:19;;;;;;;;;;;;;;;;;;5010172;28;19961;-57
2023/01/31 09:45:45;;;;;;;;;;;;;;;;;;5010890;28;20387;-58
2023/01/31 09:48:11;;;;;;;;;;;;;;;;;;5009763;28;19934;-54
2023/01/31 09:50:37;;;;;;;;;;;;;;;;;;5009942;28;19933;-58
2023/01/31 09:53:03;;;;;;;;;;;;;;;;;;5009106;28;19925;-52
2023/01/31 09:55:29;;;;;;;;;;;;;;;;;;5006449;28;19976;-58
2023/01/31 09:57:55;;;;;;;;;;;;;;;;;;5006948;28;19929;-55
2023/01/31 10:00:21;;;;;;;;;;;;;;;;;;5009532;28;19929;-57
2023/01/31 10:02:47;;;;;;;;;;;;;;;;;;5007661;28;20312;-56
2023/01/31 10:05:13;;;;;;;;;;;;;;;;;;5009699;28;20334;-58
2023/01/31 10:07:39;;;;;;;;;;;;;;;;;;5008803;28;20454;-58
2023/01/31 10:10:05;;;;;;;;;;;;;;;;;;5009859;28;20021;-58
2023/01/31 10:12:31;;;;;;;;;;;;;;;;;;5008457;28;19971;-57
2023/01/31 10:14:57;;;;;;;;;;;;;;;;;;5009476;28;20372;-52
2023/01/31 10:17:24;;;;;;;;;;;;;;;;;;5006448;28;19926;-57
2023/01/31 10:19:50;;;;;;;;;;;;;;;;;;5008394;28;19928;-58
2023/01/31 10:22:16;;;;;;;;;;;;;;;;;;5008942;28;19926;-57
2023/01/31 10:24:42;;;;;;;;;;;;;;;;;;5010076;28;19925;-57
2023/01/31 10:27:08;;;;;;;;;;;;;;;;;;5009390;28;19944;-58
2023/01/31 10:29:34;;;;;;;;;;;;;;;;;;5008702;28;19932;-57
2023/01/31 10:32:00;;;;;;;;;;;;;;;;;;5009139;28;19961;-58
2023/01/31 10:34:26;;;;;;;;;;;;;;;;;;5008540;28;19979;-58
2023/01/31 10:36:52;;;;;;;;;;;;;;;;;;5002657;28;19930;-54
2023/01/31 10:39:18;;;;;;;;;;;;;;;;;;5009202;28;19979;-57
2023/01/31 10:41:44;;;;;;;;;;;;;;;;;;5009002;28;19926;-57
2023/01/31 10:44:10;;;;;;;;;;;;;;;;;;5008809;28;19925;-58
2023/01/31 10:46:37;;;;;;;;;;;;;;;;;;5008423;28;20592;-57
2023/01/31 10:49:03;;;;;;;;;;;;;;;;;;5008511;28;19925;-58
2023/01/31 10:51:29;;;;;;;;;;;;;;;;;;5003696;28;19979;-58
2023/01/31 10:53:55;;;;;;;;;;;;;;;;;;5009381;28;20311;-55
2023/01/31 10:56:21;;;;;;;;;;;;;;;;;;5004655;28;19949;-56
2023/01/31 10:58:47;;;;;;;;;;;;;;;;;;5008906;28;19929;-49
2023/01/31 11:01:14;;;;;;;;;;;;;;;;;;5008957;28;19932;-56
2023/01/31 11:03:40;;;;;;;;;;;;;;;;;;5008378;28;19926;-56
2023/01/31 11:06:06;;;;;;;;;;;;;;;;;;5007545;28;19921;-53
2023/01/31 11:08:32;;;;;;;;;;;;;;;;;;5008560;28;19926;-56
2023/01/31 11:10:58;;;;;;;;;;;;;;;;;;5008619;28;19925;-53
2023/01/31 11:13:24;;;;;;;;;;;;;;;;;;5005187;28;19936;-56
2023/01/31 11:15:50;;;;;;;;;;;;;;;;;;5003267;28;19936;-56
2023/01/31 11:18:16;;;;;;;;;;;;;;;;;;5008619;28;19926;-57
2023/01/31 11:20:42;;;;;;;;;;;;;;;;;;5008510;28;19925;-57
2023/01/31 11:23:08;;;;;;;;;;;;;;;;;;5008179;28;20295;-57
2023/01/31 11:25:34;;;;;;;;;;;;;;;;;;5007765;28;19930;-56
2023/01/31 11:28:00;;;;;;;;;;;;;;;;;;5007985;28;19948;-53
2023/01/31 11:30:26;;;;;;;;;;;;;;;;;;5007348;28;19933;-56
2023/01/31 11:32:52;;;;;;;;;;;;;;;;;;5008096;28;19930;-53
2023/01/31 11:35:18;;;;;;;;;;;;;;;;;;5007444;28;20323;-57
2023/01/31 11:37:44;;;;;;;;;;;;;;;;;;5008192;28;19931;-54
2023/01/31 11:40:10;;;;;;;;;;;;;;;;;;5003981;28;20001;-54
2023/01/31 11:42:37;;;;;;;;;;;;;;;;;;5005363;28;19957;-56
2023/01/31 11:45:04;;;;;;;;;;;;;;;;;;5007679;28;19925;-55
2023/01/31 11:47:30;;;;;;;;;;;;;;;;;;5005670;28;19926;-57
2023/01/31 11:49:56;;;;;;;;;;;;;;;;;;5006922;28;20342;-56
2023/01/31 11:52:22;;;;;;;;;;;;;;;;;;5006773;28;19929;-56
2023/01/31 11:54:48;;;;;;;;;;;;;;;;;;5007226;28;19932;-56
2023/01/31 11:57:14;;;;;;;;;;;;;;;;;;5005654;28;19925;-56
2023/01/31 11:59:40;;;;;;;;;;;;;;;;;;5007153;28;19965;-56
2023/01/31 12:02:06;;;;;;;;;;;;;;;;;;5008341;28;19965;-51
2023/01/31 12:04:32;;;;;;;;;;;;;;;;;;5007949;28;20358;-57
2023/01/31 12:06:58;;;;;;;;;;;;;;;;;;5006738;28;21222;-56
2023/01/31 12:09:24;;;;;;;;;;;;;;;;;;5007258;28;20386;-57
2023/01/31 12:11:50;;;;;;;;;;;;;;;;;;5003857;28;19926;-57
2023/01/31 12:14:19;;;;;;;;;;;;;;;;;;5005720;28;20381;-56
2023/01/31 12:16:45;;;;;;;;;;;;;;;;;;5007401;28;20004;-57
2023/01/31 12:19:11;;;;;;;;;;;;;;;;;;5006481;28;20020;-56
2023/01/31 12:21:37;;;;;;;;;;;;;;;;;;5006852;28;20870;-57
2023/01/31 12:24:03;;;;;;;;;;;;;;;;;;5006936;28;19925;-56
2023/01/31 12:26:29;;;;;;;;;;;;;;;;;;5009230;28;19925;-57
2023/01/31 12:28:55;;;;;;;;;;;;;;;;;;5011286;28;19921;-57
2023/01/31 12:31:21;;;;;;;;;;;;;;;;;;5011393;28;19961;-56
2023/01/31 12:33:47;;;;;;;;;;;;;;;;;;5012002;28;19933;-54
2023/01/31 12:36:13;;;;;;;;;;;;;;;;;;5011083;28;19926;-57
2023/01/31 12:38:39;;;;;;;;;;;;;;;;;;5011069;28;19937;-54
2023/01/31 12:41:05;;;;;;;;;;;;;;;;;;5011616;28;20315;-57
2023/01/31 12:43:31;;;;;;;;;;;;;;;;;;5011348;28;20389;-55
2023/01/31 12:45:57;;;;;;;;;;;;;;;;;;5011362;28;19926;-57
2023/01/31 12:48:23;;;;;;;;;;;;;;;;;;5010836;28;20047;-56
2023/01/31 12:50:50;;;;;;;;;;;;;;;;;;5009448;28;20012;-57
2023/01/31 12:53:17;;;;;;;;;;;;;;;;;;5011001;28;20449;-56
2023/01/31 12:55:43;;;;;;;;;;;;;;;;;;5010194;28;19973;-57
2023/01/31 12:58:09;;;;;;;;;;;;;;;;;;5010945;28;19979;-53
2023/01/31 13:00:35;;;;;;;;;;;;;;;;;;5010343;28;19932;-57
2023/01/31 13:03:01;;;;;;;;;;;;;;;;;;5010857;28;19925;-56
2023/01/31 13:05:27;;;;;;;;;;;;;;;;;;5006476;28;19936;-56
2023/01/31 13:07:53;;;;;;;;;;;;;;;;;;5010057;28;20544;-56
2023/01/31 13:10:20;;;;;;;;;;;;;;;;;;4992499;28;19936;-55
2023/01/31 13:12:46;;;;;;;;;;;;;;;;;;5012350;28;19933;-57
2023/01/31 13:15:12;;;;;;;;;;;;;;;;;;5011747;28;19926;-56
2023/01/31 13:17:38;;;;;;;;;;;;;;;;;;5015020;28;19929;-57
2023/01/31 13:20:04;;;;;;;;;;;;;;;;;;5011662;28;21458;-56
2023/01/31 13:22:31;;;;;;;;;;;;;;;;;;5006959;28;20017;-57
2023/01/31 13:24:57;;;;;;;;;;;;;;;;;;5012948;28;20452;-58
2023/01/31 13:27:23;;;;;;;;;;;;;;;;;;5010369;28;19930;-57
2023/01/31 13:29:51;;;;;;;;;;;;;;;;;;5014628;28;19975;-57
2023/01/31 13:32:17;;;;;;;;;;;;;;;;;;5010970;28;19932;-56
2023/01/31 13:34:43;;;;;;;;;;;;;;;;;;5011361;28;19925;-56
2023/01/31 13:37:09;;;;;;;;;;;;;;;;;;5009257;28;19926;-57
2023/01/31 13:39:35;;;;;;;;;;;;;;;;;;5009767;28;20432;-57
2023/01/31 13:42:01;;;;;;;;;;;;;;;;;;5007047;28;19930;-52
2023/01/31 13:44:27;;;;;;;;;;;;;;;;;;5010415;28;20596;-57
2023/01/31 13:46:53;;;;;;;;;;;;;;;;;;5009828;28;20407;-53
2023/01/31 13:49:19;;;;;;;;;;;;;;;;;;5009335;28;19930;-56
2023/01/31 13:51:45;;;;;;;;;;;;;;;;;;5009884;28;19932;-57
2023/01/31 13:54:11;;;;;;;;;;;;;;;;;;5010123;28;19929;-57
2023/01/31 13:56:37;;;;;;;;;;;;;;;;;;4991354;28;19930;-57
2023/01/31 13:59:03;;;;;;;;;;;;;;;;;;5010025;28;19925;-57
2023/01/31 14:01:29;;;;;;;;;;;;;;;;;;5009912;28;20295;-57
2023/01/31 14:03:55;;;;;;;;;;;;;;;;;;5011164;28;19922;-57
2023/01/31 14:06:21;;;;;;;;;;;;;;;;;;5009701;28;19929;-57
2023/01/31 14:08:48;;;;;;;;;;;;;;;;;;5009564;28;19933;-55
2023/01/31 14:11:15;;;;;;;;;;;;;;;;;;5010828;28;19980;-54
2023/01/31 14:13:41;;;;;;;;;;;;;;;;;;5009117;28;19934;-56
2023/01/31 14:16:07;;;;;;;;;;;;;;;;;;5009419;28;19992;-55
2023/01/31 14:18:33;;;;;;;;;;;;;;;;;;5006468;28;20334;-57
2023/01/31 14:20:59;;;;;;;;;;;;;;;;;;5005915;28;20368;-57
2023/01/31 14:23:25;;;;;;;;;;;;;;;;;;5009688;28;19925;-54
2023/01/31 14:25:51;;;;;;;;;;;;;;;;;;5009893;28;19925;-57
2023/01/31 14:28:17;;;;;;;;;;;;;;;;;;5010147;28;19929;-57
2023/01/31 14:30:46;;;;;;;;;;;;;;;;;;5002297;28;19936;-56
2023/01/31 14:33:12;;;;;;;;;;;;;;;;;;5006929;28;19929;-55
2023/01/31 14:35:38;;;;;;;;;;;;;;;;;;5004912;28;19999;-57
2023/01/31 14:38:04;;;;;;;;;;;;;;;;;;5005459;28;19929;-55
2023/01/31 14:40:30;;;;;;;;;;;;;;;;;;5005447;28;19921;-56
2023/01/31 14:42:56;;;;;;;;;;;;;;;;;;5005836;28;19933;-56
2023/01/31 14:45:22;;;;;;;;;;;;;;;;;;5005596;28;19983;-57
2023/01/31 14:47:48;;;;;;;;;;;;;;;;;;5005667;28;19925;-56
2023/01/31 14:50:14;;;;;;;;;;;;;;;;;;5005721;28;20335;-57
2023/01/31 14:52:40;;;;;;;;;;;;;;;;;;5004602;28;19933;-56
2023/01/31 14:55:06;;;;;;;;;;;;;;;;;;5005699;28;19926;-56
2023/01/31 14:57:32;;;;;;;;;;;;;;;;;;5005650;28;20287;-57
2023/01/31 14:59:58;;;;;;;;;;;;;;;;;;5005457;28;19933;-57
2023/01/31 15:02:24;;;;;;;;;;;;;;;;;;5005546;28;19925;-56
2023/01/31 15:04:50;;;;;;;;;;;;;;;;;;5002493;28;19940;-58
2023/01/31 15:07:16;;;;;;;;;;;;;;;;;;5007772;28;19933;-56
2023/01/31 15:09:42;;;;;;;;;;;;;;;;;;5008269;28;19979;-54
2023/01/31 15:12:08;;;;;;;;;;;;;;;;;;5014084;28;19925;-57
2023/01/31 15:14:35;;;;;;;;;;;;;;;;;;5026185;28;20712;-54
2023/01/31 15:17:01;;;;;;;;;;;;;;;;;;5023352;28;20382;-56
2023/01/31 15:19:28;;;;;;;;;;;;;;;;;;5026172;28;20014;-57
2023/01/31 15:21:54;;;;;;;;;;;;;;;;;;5026400;28;20390;-56
2023/01/31 15:24:20;;;;;;;;;;;;;;;;;;5027328;28;20008;-52
2023/01/31 15:26:46;;;;;;;;;;;;;;;;;;5027688;28;20105;-56
2023/01/31 15:29:13;;;;;;;;;;;;;;;;;;5025106;28;19937;-57
2023/01/31 15:31:39;;;;;;;;;;;;;;;;;;5025911;28;20382;-57
2023/01/31 15:34:05;;;;;;;;;;;;;;;;;;5025775;28;19933;-58
2023/01/31 15:36:32;;;;;;;;;;;;;;;;;;5024796;28;19968;-55
2023/01/31 15:38:58;;;;;;;;;;;;;;;;;;5025512;28;19968;-56
2023/01/31 15:41:24;;;;;;;;;;;;;;;;;;5025000;28;19971;-57
2023/01/31 15:43:50;;;;;;;;;;;;;;;;;;5025632;28;20008;-57
2023/01/31 15:46:16;;;;;;;;;;;;;;;;;;5025793;28;20311;-57
2023/01/31 15:48:42;;;;;;;;;;;;;;;;;;5025789;28;20395;-56
2023/01/31 15:51:08;;;;;;;;;;;;;;;;;;5023113;28;19933;-57
2023/01/31 15:53:34;;;;;;;;;;;;;;;;;;5025429;28;19975;-56
2023/01/31 15:56:02;;;;;;;;;;;;;;;;;;5024792;28;19960;-57
2023/01/31 15:58:28;;;;;;;;;;;;;;;;;;5023917;28;19979;-57
2023/01/31 16:00:54;;;;;;;;;;;;;;;;;;5025051;28;20288;-57
2023/01/31 16:03:20;;;;;;;;;;;;;;;;;;5026038;28;19925;-57
2023/01/31 16:05:46;;;;;;;;;;;;;;;;;;5023828;28;20011;-56
2023/01/31 16:08:12;;;;;;;;;;;;;;;;;;5025860;28;20351;-53
2023/01/31 16:10:38;;;;;;;;;;;;;;;;;;5025532;28;20020;-57
2023/01/31 16:13:04;;;;;;;;;;;;;;;;;;5025624;28;19926;-57
2023/01/31 16:15:30;;;;;;;;;;;;;;;;;;5024669;28;20375;-57
2023/01/31 16:17:56;;;;;;;;;;;;;;;;;;5025228;28;20441;-56
2023/01/31 16:20:22;;;;;;;;;;;;;;;;;;5022673;28;19933;-57
2023/01/31 16:22:49;;;;;;;;;;;;;;;;;;5024918;28;19925;-57
2023/01/31 16:25:15;;;;;;;;;;;;;;;;;;5026284;28;20375;-53
2023/01/31 16:27:41;;;;;;;;;;;;;;;;;;5024806;28;19921;-56
2023/01/31 16:30:07;;;;;;;;;;;;;;;;;;5024335;28;19929;-54
2023/01/31 16:32:33;;;;;;;;;;;;;;;;;;5024669;28;20058;-57
2023/01/31 16:34:59;;;;;;;;;;;;;;;;;;5025391;28;19963;-56
2023/01/31 16:37:25;;;;;;;;;;;;;;;;;;5023077;28;19925;-57
2023/01/31 16:39:51;;;;;;;;;;;;;;;;;;5026140;28;19929;-56
2023/01/31 16:42:19;;;;;;;;;;;;;;;;;;5025400;28;19940;-55
2023/01/31 16:44:45;;;;;;;;;;;;;;;;;;5025469;28;19925;-56